sensor_id;sensor_type;location;lat;lon;timestamp;P1;durP1;ratioP1;P2;durP2;ratioP2
34767;SDS011;21755;43.608;1.236;2023-05-10T00:01:30;34.33;;;4.45;;
34767;SDS011;21755;43.608;1.236;2023-05-10T00:03:56;17.95;;;4.30;;
34767;SDS011;21755;43.608;1.236;2023-05-10T00:06:22;27.10;;;4.03;;
34767;SDS011;21755;43.608;1.236;2023-05-10T00:08:48;23.73;;;3.92;;
34767;SDS011;21755;43.608;1.236;2023-05-10T00:11:14;27.25;;;5.07;;
34767;SDS011;21755;43.608;1.236;2023-05-10T00:13:40;29.40;;;5.32;;
34767;SDS011;21755;43.608;1.236;2023-05-10T00:16:06;15.63;;;4.40;;
34767;SDS011;21755;43.608;1.236;2023-05-10T00:18:32;21.48;;;4.28;;
34767;SDS011;21755;43.608;1.236;2023-05-10T00:20:57;32.03;;;5.47;;
34767;SDS011;21755;43.608;1.236;2023-05-10T00:23:23;23.70;;;3.67;;
34767;SDS011;21755;43.608;1.236;2023-05-10T00:25:49;26.00;;;5.00;;
34767;SDS011;21755;43.608;1.236;2023-05-10T00:28:15;26.42;;;4.85;;
34767;SDS011;21755;43.608;1.236;2023-05-10T00:30:41;29.60;;;4.85;;
34767;SDS011;21755;43.608;1.236;2023-05-10T00:33:07;27.70;;;4.90;;
34767;SDS011;21755;43.608;1.236;2023-05-10T00:35:32;18.85;;;3.85;;
34767;SDS011;21755;43.608;1.236;2023-05-10T00:37:58;21.92;;;4.90;;
34767;SDS011;21755;43.608;1.236;2023-05-10T00:40:25;24.45;;;4.55;;
34767;SDS011;21755;43.608;1.236;2023-05-10T00:42:50;21.92;;;4.72;;
34767;SDS011;21755;43.608;1.236;2023-05-10T00:45:17;26.58;;;4.72;;
34767;SDS011;21755;43.608;1.236;2023-05-10T00:47:44;32.60;;;4.63;;
34767;SDS011;21755;43.608;1.236;2023-05-10T00:50:10;27.70;;;4.95;;
34767;SDS011;21755;43.608;1.236;2023-05-10T00:52:36;33.83;;;5.05;;
34767;SDS011;21755;43.608;1.236;2023-05-10T00:55:02;23.13;;;3.70;;
34767;SDS011;21755;43.608;1.236;2023-05-10T00:57:29;24.27;;;4.32;;
34767;SDS011;21755;43.608;1.236;2023-05-10T00:59:55;28.40;;;3.97;;
34767;SDS011;21755;43.608;1.236;2023-05-10T01:02:22;28.60;;;4.35;;
34767;SDS011;21755;43.608;1.236;2023-05-10T01:04:49;23.38;;;4.78;;
34767;SDS011;21755;43.608;1.236;2023-05-10T01:07:15;22.77;;;4.43;;
34767;SDS011;21755;43.608;1.236;2023-05-10T01:09:41;20.02;;;3.60;;
34767;SDS011;21755;43.608;1.236;2023-05-10T01:12:07;24.77;;;4.20;;
34767;SDS011;21755;43.608;1.236;2023-05-10T01:14:33;23.75;;;4.43;;
34767;SDS011;21755;43.608;1.236;2023-05-10T01:17:01;21.38;;;4.18;;
34767;SDS011;21755;43.608;1.236;2023-05-10T01:19:28;25.98;;;4.25;;
34767;SDS011;21755;43.608;1.236;2023-05-10T01:22:04;17.23;;;3.75;;
34767;SDS011;21755;43.608;1.236;2023-05-10T01:35:19;23.17;;;3.70;;
34767;SDS011;21755;43.608;1.236;2023-05-10T01:43:23;14.93;;;3.40;;
34767;SDS011;21755;43.608;1.236;2023-05-10T01:46:01;21.25;;;3.97;;
34767;SDS011;21755;43.608;1.236;2023-05-10T01:48:36;19.30;;;3.78;;
34767;SDS011;21755;43.608;1.236;2023-05-10T01:51:12;24.95;;;3.90;;
34767;SDS011;21755;43.608;1.236;2023-05-10T01:56:11;15.68;;;3.63;;
34767;SDS011;21755;43.608;1.236;2023-05-10T01:58:39;16.85;;;3.63;;
34767;SDS011;21755;43.608;1.236;2023-05-10T02:01:09;22.20;;;3.95;;
34767;SDS011;21755;43.608;1.236;2023-05-10T02:03:36;23.55;;;3.42;;
34767;SDS011;21755;43.608;1.236;2023-05-10T02:06:03;19.48;;;3.95;;
34767;SDS011;21755;43.608;1.236;2023-05-10T02:08:30;18.17;;;3.97;;
34767;SDS011;21755;43.608;1.236;2023-05-10T02:10:59;21.83;;;4.25;;
34767;SDS011;21755;43.608;1.236;2023-05-10T02:13:26;26.35;;;4.68;;
34767;SDS011;21755;43.608;1.236;2023-05-10T02:15:53;26.45;;;3.58;;
34767;SDS011;21755;43.608;1.236;2023-05-10T02:18:20;20.45;;;3.63;;
34767;SDS011;21755;43.608;1.236;2023-05-10T02:20:48;25.30;;;4.18;;
34767;SDS011;21755;43.608;1.236;2023-05-10T02:23:16;25.70;;;4.68;;
34767;SDS011;21755;43.608;1.236;2023-05-10T02:25:44;24.08;;;4.38;;
34767;SDS011;21755;43.608;1.236;2023-05-10T02:28:11;23.00;;;4.25;;
34767;SDS011;21755;43.608;1.236;2023-05-10T02:30:38;22.60;;;3.90;;
34767;SDS011;21755;43.608;1.236;2023-05-10T02:33:04;25.98;;;4.32;;
34767;SDS011;21755;43.608;1.236;2023-05-10T02:35:31;18.10;;;4.72;;
34767;SDS011;21755;43.608;1.236;2023-05-10T02:37:58;23.15;;;4.00;;
34767;SDS011;21755;43.608;1.236;2023-05-10T02:40:25;30.08;;;4.05;;
34767;SDS011;21755;43.608;1.236;2023-05-10T02:42:52;29.52;;;4.43;;
34767;SDS011;21755;43.608;1.236;2023-05-10T02:45:22;19.65;;;4.00;;
34767;SDS011;21755;43.608;1.236;2023-05-10T02:47:51;25.48;;;4.00;;
34767;SDS011;21755;43.608;1.236;2023-05-10T02:50:18;20.92;;;3.97;;
34767;SDS011;21755;43.608;1.236;2023-05-10T02:52:49;26.40;;;4.13;;
34767;SDS011;21755;43.608;1.236;2023-05-10T02:55:21;25.52;;;4.78;;
34767;SDS011;21755;43.608;1.236;2023-05-10T02:57:52;28.13;;;4.68;;
34767;SDS011;21755;43.608;1.236;2023-05-10T03:00:24;16.90;;;3.50;;
34767;SDS011;21755;43.608;1.236;2023-05-10T03:02:50;14.30;;;2.78;;
34767;SDS011;21755;43.608;1.236;2023-05-10T03:05:16;17.25;;;2.88;;
34767;SDS011;21755;43.608;1.236;2023-05-10T03:07:42;12.13;;;1.98;;
34767;SDS011;21755;43.608;1.236;2023-05-10T03:10:08;14.27;;;2.10;;
34767;SDS011;21755;43.608;1.236;2023-05-10T03:18:21;15.77;;;3.25;;
34767;SDS011;21755;43.608;1.236;2023-05-10T03:20:56;15.88;;;3.70;;
34767;SDS011;21755;43.608;1.236;2023-05-10T03:23:30;17.88;;;3.78;;
34767;SDS011;21755;43.608;1.236;2023-05-10T03:26:12;16.10;;;2.92;;
34767;SDS011;21755;43.608;1.236;2023-05-10T03:28:48;22.20;;;2.90;;
34767;SDS011;21755;43.608;1.236;2023-05-10T03:31:16;19.60;;;2.63;;
34767;SDS011;21755;43.608;1.236;2023-05-10T03:33:49;10.68;;;2.58;;
34767;SDS011;21755;43.608;1.236;2023-05-10T03:36:16;20.35;;;3.03;;
34767;SDS011;21755;43.608;1.236;2023-05-10T03:38:42;15.95;;;2.83;;
34767;SDS011;21755;43.608;1.236;2023-05-10T03:41:08;16.23;;;3.35;;
34767;SDS011;21755;43.608;1.236;2023-05-10T03:43:34;16.23;;;2.45;;
34767;SDS011;21755;43.608;1.236;2023-05-10T03:46:03;16.65;;;3.45;;
34767;SDS011;21755;43.608;1.236;2023-05-10T03:48:30;11.80;;;2.85;;
34767;SDS011;21755;43.608;1.236;2023-05-10T03:50:56;18.05;;;2.67;;
34767;SDS011;21755;43.608;1.236;2023-05-10T03:53:22;28.02;;;3.65;;
34767;SDS011;21755;43.608;1.236;2023-05-10T03:55:48;15.98;;;2.95;;
34767;SDS011;21755;43.608;1.236;2023-05-10T03:58:14;18.15;;;3.35;;
34767;SDS011;21755;43.608;1.236;2023-05-10T04:00:40;13.80;;;2.50;;
34767;SDS011;21755;43.608;1.236;2023-05-10T04:03:10;23.40;;;3.58;;
34767;SDS011;21755;43.608;1.236;2023-05-10T04:05:37;14.25;;;2.95;;
34767;SDS011;21755;43.608;1.236;2023-05-10T04:08:03;15.98;;;3.35;;
34767;SDS011;21755;43.608;1.236;2023-05-10T04:10:30;15.93;;;2.60;;
34767;SDS011;21755;43.608;1.236;2023-05-10T04:12:56;23.35;;;3.50;;
34767;SDS011;21755;43.608;1.236;2023-05-10T04:15:22;14.10;;;2.38;;
34767;SDS011;21755;43.608;1.236;2023-05-10T04:17:48;15.38;;;4.13;;
34767;SDS011;21755;43.608;1.236;2023-05-10T04:20:14;11.55;;;2.70;;
34767;SDS011;21755;43.608;1.236;2023-05-10T04:22:40;19.55;;;3.47;;
34767;SDS011;21755;43.608;1.236;2023-05-10T04:25:06;21.77;;;3.17;;
34767;SDS011;21755;43.608;1.236;2023-05-10T04:27:32;23.75;;;3.67;;
34767;SDS011;21755;43.608;1.236;2023-05-10T04:29:58;19.67;;;3.20;;
34767;SDS011;21755;43.608;1.236;2023-05-10T04:32:24;26.73;;;3.63;;
34767;SDS011;21755;43.608;1.236;2023-05-10T04:34:50;22.65;;;4.07;;
34767;SDS011;21755;43.608;1.236;2023-05-10T04:37:17;19.95;;;3.47;;
34767;SDS011;21755;43.608;1.236;2023-05-10T04:39:43;17.10;;;3.05;;
34767;SDS011;21755;43.608;1.236;2023-05-10T04:42:09;20.95;;;2.58;;
34767;SDS011;21755;43.608;1.236;2023-05-10T04:44:35;21.42;;;3.47;;
34767;SDS011;21755;43.608;1.236;2023-05-10T04:47:01;20.20;;;3.75;;
34767;SDS011;21755;43.608;1.236;2023-05-10T04:49:28;20.17;;;3.30;;
34767;SDS011;21755;43.608;1.236;2023-05-10T04:51:54;22.20;;;3.45;;
34767;SDS011;21755;43.608;1.236;2023-05-10T04:54:20;20.95;;;3.45;;
34767;SDS011;21755;43.608;1.236;2023-05-10T04:56:46;15.25;;;3.55;;
34767;SDS011;21755;43.608;1.236;2023-05-10T04:59:12;19.65;;;3.17;;
34767;SDS011;21755;43.608;1.236;2023-05-10T05:01:38;20.73;;;3.63;;
34767;SDS011;21755;43.608;1.236;2023-05-10T05:04:05;21.60;;;3.88;;
34767;SDS011;21755;43.608;1.236;2023-05-10T05:06:31;26.38;;;3.70;;
34767;SDS011;21755;43.608;1.236;2023-05-10T05:08:57;21.85;;;3.17;;
34767;SDS011;21755;43.608;1.236;2023-05-10T05:11:23;19.08;;;2.80;;
34767;SDS011;21755;43.608;1.236;2023-05-10T05:13:50;17.42;;;2.80;;
34767;SDS011;21755;43.608;1.236;2023-05-10T05:16:16;20.98;;;3.70;;
34767;SDS011;21755;43.608;1.236;2023-05-10T05:18:42;14.93;;;3.78;;
34767;SDS011;21755;43.608;1.236;2023-05-10T05:21:17;17.92;;;3.20;;
34767;SDS011;21755;43.608;1.236;2023-05-10T05:23:44;24.73;;;3.22;;
34767;SDS011;21755;43.608;1.236;2023-05-10T05:26:11;11.68;;;3.60;;
34767;SDS011;21755;43.608;1.236;2023-05-10T05:28:37;18.83;;;3.38;;
34767;SDS011;21755;43.608;1.236;2023-05-10T05:31:03;18.40;;;3.47;;
34767;SDS011;21755;43.608;1.236;2023-05-10T05:33:30;11.55;;;2.53;;
34767;SDS011;21755;43.608;1.236;2023-05-10T05:35:56;14.50;;;2.40;;
34767;SDS011;21755;43.608;1.236;2023-05-10T05:38:22;16.77;;;3.00;;
34767;SDS011;21755;43.608;1.236;2023-05-10T05:40:48;22.35;;;4.07;;
34767;SDS011;21755;43.608;1.236;2023-05-10T05:43:14;20.27;;;3.03;;
34767;SDS011;21755;43.608;1.236;2023-05-10T05:45:40;13.13;;;2.95;;
34767;SDS011;21755;43.608;1.236;2023-05-10T05:48:06;22.20;;;3.13;;
34767;SDS011;21755;43.608;1.236;2023-05-10T05:50:32;14.65;;;2.78;;
34767;SDS011;21755;43.608;1.236;2023-05-10T05:52:58;23.65;;;3.67;;
34767;SDS011;21755;43.608;1.236;2023-05-10T05:55:24;22.73;;;3.53;;
34767;SDS011;21755;43.608;1.236;2023-05-10T05:57:51;16.63;;;3.20;;
34767;SDS011;21755;43.608;1.236;2023-05-10T06:00:17;13.63;;;2.83;;
34767;SDS011;21755;43.608;1.236;2023-05-10T06:02:43;20.58;;;3.03;;
34767;SDS011;21755;43.608;1.236;2023-05-10T06:05:09;17.75;;;2.72;;
34767;SDS011;21755;43.608;1.236;2023-05-10T06:07:34;26.13;;;3.55;;
34767;SDS011;21755;43.608;1.236;2023-05-10T06:10:01;24.67;;;3.22;;
34767;SDS011;21755;43.608;1.236;2023-05-10T06:12:27;22.90;;;3.10;;
34767;SDS011;21755;43.608;1.236;2023-05-10T06:14:53;20.15;;;3.30;;
34767;SDS011;21755;43.608;1.236;2023-05-10T06:17:19;20.98;;;3.35;;
34767;SDS011;21755;43.608;1.236;2023-05-10T06:19:46;20.35;;;3.00;;
34767;SDS011;21755;43.608;1.236;2023-05-10T06:22:12;18.88;;;3.47;;
34767;SDS011;21755;43.608;1.236;2023-05-10T06:24:38;18.08;;;3.80;;
34767;SDS011;21755;43.608;1.236;2023-05-10T06:27:04;19.80;;;3.33;;
34767;SDS011;21755;43.608;1.236;2023-05-10T06:29:30;19.92;;;3.08;;
34767;SDS011;21755;43.608;1.236;2023-05-10T06:31:56;21.23;;;3.22;;
34767;SDS011;21755;43.608;1.236;2023-05-10T06:34:22;14.80;;;3.25;;
34767;SDS011;21755;43.608;1.236;2023-05-10T06:36:48;18.23;;;2.63;;
34767;SDS011;21755;43.608;1.236;2023-05-10T06:39:14;15.32;;;3.33;;
34767;SDS011;21755;43.608;1.236;2023-05-10T06:41:41;17.20;;;2.78;;
34767;SDS011;21755;43.608;1.236;2023-05-10T06:44:07;26.95;;;3.35;;
34767;SDS011;21755;43.608;1.236;2023-05-10T06:46:33;23.08;;;3.60;;
34767;SDS011;21755;43.608;1.236;2023-05-10T06:48:59;14.98;;;3.15;;
34767;SDS011;21755;43.608;1.236;2023-05-10T06:51:25;27.42;;;3.72;;
34767;SDS011;21755;43.608;1.236;2023-05-10T06:53:51;13.77;;;2.58;;
34767;SDS011;21755;43.608;1.236;2023-05-10T06:56:16;16.05;;;2.83;;
34767;SDS011;21755;43.608;1.236;2023-05-10T06:58:42;17.88;;;2.95;;
34767;SDS011;21755;43.608;1.236;2023-05-10T07:01:08;20.73;;;3.38;;
34767;SDS011;21755;43.608;1.236;2023-05-10T07:03:34;20.75;;;3.22;;
34767;SDS011;21755;43.608;1.236;2023-05-10T07:06:03;10.90;;;2.05;;
34767;SDS011;21755;43.608;1.236;2023-05-10T07:08:33;22.60;;;3.00;;
34767;SDS011;21755;43.608;1.236;2023-05-10T07:11:03;23.55;;;3.20;;
34767;SDS011;21755;43.608;1.236;2023-05-10T07:13:32;19.40;;;3.88;;
34767;SDS011;21755;43.608;1.236;2023-05-10T07:15:58;16.00;;;3.33;;
34767;SDS011;21755;43.608;1.236;2023-05-10T07:18:25;27.40;;;3.45;;
34767;SDS011;21755;43.608;1.236;2023-05-10T07:20:51;21.50;;;3.55;;
34767;SDS011;21755;43.608;1.236;2023-05-10T07:23:17;15.77;;;2.55;;
34767;SDS011;21755;43.608;1.236;2023-05-10T07:25:46;19.73;;;3.58;;
34767;SDS011;21755;43.608;1.236;2023-05-10T07:28:13;19.00;;;2.63;;
34767;SDS011;21755;43.608;1.236;2023-05-10T07:30:40;20.50;;;3.28;;
34767;SDS011;21755;43.608;1.236;2023-05-10T07:33:06;11.35;;;2.38;;
34767;SDS011;21755;43.608;1.236;2023-05-10T07:35:33;17.40;;;2.53;;
34767;SDS011;21755;43.608;1.236;2023-05-10T07:37:59;13.65;;;2.80;;
34767;SDS011;21755;43.608;1.236;2023-05-10T07:40:25;23.25;;;3.78;;
34767;SDS011;21755;43.608;1.236;2023-05-10T07:42:51;19.42;;;3.80;;
34767;SDS011;21755;43.608;1.236;2023-05-10T07:45:17;13.90;;;2.97;;
34767;SDS011;21755;43.608;1.236;2023-05-10T07:47:43;17.25;;;3.40;;
34767;SDS011;21755;43.608;1.236;2023-05-10T07:50:09;20.00;;;3.15;;
34767;SDS011;21755;43.608;1.236;2023-05-10T07:52:35;12.57;;;3.10;;
34767;SDS011;21755;43.608;1.236;2023-05-10T07:55:01;22.05;;;3.55;;
34767;SDS011;21755;43.608;1.236;2023-05-10T07:57:27;20.05;;;3.95;;
34767;SDS011;21755;43.608;1.236;2023-05-10T07:59:53;14.48;;;2.83;;
34767;SDS011;21755;43.608;1.236;2023-05-10T08:02:18;20.13;;;3.65;;
34767;SDS011;21755;43.608;1.236;2023-05-10T08:04:44;20.58;;;3.45;;
34767;SDS011;21755;43.608;1.236;2023-05-10T08:07:10;15.98;;;2.47;;
34767;SDS011;21755;43.608;1.236;2023-05-10T08:09:36;20.70;;;3.47;;
34767;SDS011;21755;43.608;1.236;2023-05-10T08:12:02;21.55;;;3.53;;
34767;SDS011;21755;43.608;1.236;2023-05-10T08:14:28;22.20;;;4.00;;
34767;SDS011;21755;43.608;1.236;2023-05-10T08:16:55;19.20;;;3.35;;
34767;SDS011;21755;43.608;1.236;2023-05-10T08:19:21;20.38;;;3.13;;
34767;SDS011;21755;43.608;1.236;2023-05-10T08:21:48;18.08;;;3.25;;
34767;SDS011;21755;43.608;1.236;2023-05-10T08:24:14;24.10;;;3.50;;
34767;SDS011;21755;43.608;1.236;2023-05-10T08:26:40;19.35;;;2.72;;
34767;SDS011;21755;43.608;1.236;2023-05-10T08:29:05;19.85;;;3.30;;
34767;SDS011;21755;43.608;1.236;2023-05-10T08:31:31;12.63;;;2.45;;
34767;SDS011;21755;43.608;1.236;2023-05-10T08:33:57;12.85;;;2.70;;
34767;SDS011;21755;43.608;1.236;2023-05-10T08:36:23;16.25;;;2.70;;
34767;SDS011;21755;43.608;1.236;2023-05-10T08:38:50;13.95;;;2.58;;
34767;SDS011;21755;43.608;1.236;2023-05-10T08:41:18;14.18;;;2.65;;
34767;SDS011;21755;43.608;1.236;2023-05-10T08:43:46;23.20;;;3.38;;
34767;SDS011;21755;43.608;1.236;2023-05-10T08:46:16;18.73;;;3.05;;
34767;SDS011;21755;43.608;1.236;2023-05-10T08:48:44;20.67;;;3.53;;
34767;SDS011;21755;43.608;1.236;2023-05-10T08:51:14;10.15;;;2.40;;
34767;SDS011;21755;43.608;1.236;2023-05-10T08:53:43;11.02;;;2.38;;
34767;SDS011;21755;43.608;1.236;2023-05-10T08:56:10;14.15;;;2.00;;
34767;SDS011;21755;43.608;1.236;2023-05-10T08:58:36;20.50;;;2.97;;
34767;SDS011;21755;43.608;1.236;2023-05-10T09:01:03;18.67;;;2.97;;
34767;SDS011;21755;43.608;1.236;2023-05-10T09:03:30;15.40;;;2.45;;
34767;SDS011;21755;43.608;1.236;2023-05-10T09:05:57;12.88;;;1.77;;
34767;SDS011;21755;43.608;1.236;2023-05-10T09:08:24;15.30;;;3.28;;
34767;SDS011;21755;43.608;1.236;2023-05-10T09:10:53;15.90;;;2.90;;
34767;SDS011;21755;43.608;1.236;2023-05-10T09:13:21;15.30;;;3.25;;
34767;SDS011;21755;43.608;1.236;2023-05-10T09:15:47;18.67;;;2.83;;
34767;SDS011;21755;43.608;1.236;2023-05-10T09:18:14;12.02;;;2.85;;
34767;SDS011;21755;43.608;1.236;2023-05-10T09:20:40;7.85;;;2.50;;
34767;SDS011;21755;43.608;1.236;2023-05-10T09:23:06;13.07;;;2.00;;
34767;SDS011;21755;43.608;1.236;2023-05-10T09:25:32;15.02;;;1.95;;
34767;SDS011;21755;43.608;1.236;2023-05-10T09:27:58;12.32;;;2.40;;
34767;SDS011;21755;43.608;1.236;2023-05-10T09:30:26;10.75;;;2.35;;
34767;SDS011;21755;43.608;1.236;2023-05-10T09:32:53;15.32;;;2.67;;
34767;SDS011;21755;43.608;1.236;2023-05-10T09:35:21;15.77;;;2.97;;
34767;SDS011;21755;43.608;1.236;2023-05-10T09:37:49;13.98;;;2.22;;
34767;SDS011;21755;43.608;1.236;2023-05-10T09:40:24;18.23;;;2.38;;
34767;SDS011;21755;43.608;1.236;2023-05-10T09:42:52;12.43;;;2.42;;
34767;SDS011;21755;43.608;1.236;2023-05-10T09:45:18;8.65;;;1.60;;
34767;SDS011;21755;43.608;1.236;2023-05-10T09:47:45;7.00;;;1.50;;
34767;SDS011;21755;43.608;1.236;2023-05-10T09:50:11;10.73;;;2.50;;
34767;SDS011;21755;43.608;1.236;2023-05-10T09:55:13;6.00;;;1.42;;
34767;SDS011;21755;43.608;1.236;2023-05-10T09:57:39;11.18;;;1.70;;
34767;SDS011;21755;43.608;1.236;2023-05-10T10:00:06;7.78;;;1.42;;
34767;SDS011;21755;43.608;1.236;2023-05-10T10:02:32;9.82;;;1.75;;
34767;SDS011;21755;43.608;1.236;2023-05-10T10:05:00;8.40;;;1.25;;
34767;SDS011;21755;43.608;1.236;2023-05-10T10:07:28;5.82;;;1.73;;
34767;SDS011;21755;43.608;1.236;2023-05-10T10:09:54;6.50;;;2.00;;
34767;SDS011;21755;43.608;1.236;2023-05-10T10:12:20;7.57;;;1.95;;
34767;SDS011;21755;43.608;1.236;2023-05-10T10:14:47;12.77;;;2.08;;
34767;SDS011;21755;43.608;1.236;2023-05-10T10:17:14;8.95;;;1.88;;
34767;SDS011;21755;43.608;1.236;2023-05-10T10:19:40;9.85;;;2.25;;
34767;SDS011;21755;43.608;1.236;2023-05-10T10:22:07;11.68;;;1.85;;
34767;SDS011;21755;43.608;1.236;2023-05-10T10:24:33;8.32;;;1.77;;
34767;SDS011;21755;43.608;1.236;2023-05-10T10:32:53;7.05;;;1.65;;
34767;SDS011;21755;43.608;1.236;2023-05-10T10:35:36;14.93;;;1.52;;
34767;SDS011;21755;43.608;1.236;2023-05-10T10:38:03;14.23;;;2.17;;
34767;SDS011;21755;43.608;1.236;2023-05-10T10:42:56;13.80;;;2.53;;
34767;SDS011;21755;43.608;1.236;2023-05-10T10:45:23;8.25;;;2.17;;
34767;SDS011;21755;43.608;1.236;2023-05-10T10:50:46;8.15;;;1.40;;
34767;SDS011;21755;43.608;1.236;2023-05-10T10:53:12;13.43;;;2.25;;
34767;SDS011;21755;43.608;1.236;2023-05-10T10:55:47;8.50;;;1.92;;
34767;SDS011;21755;43.608;1.236;2023-05-10T10:58:29;8.13;;;1.98;;
34767;SDS011;21755;43.608;1.236;2023-05-10T11:01:15;9.73;;;1.88;;
34767;SDS011;21755;43.608;1.236;2023-05-10T11:03:56;9.63;;;1.80;;
34767;SDS011;21755;43.608;1.236;2023-05-10T11:06:35;13.13;;;2.25;;
34767;SDS011;21755;43.608;1.236;2023-05-10T11:09:08;10.40;;;1.85;;
34767;SDS011;21755;43.608;1.236;2023-05-10T11:11:35;11.35;;;2.17;;
34767;SDS011;21755;43.608;1.236;2023-05-10T11:14:04;13.00;;;1.63;;
34767;SDS011;21755;43.608;1.236;2023-05-10T11:16:44;6.93;;;1.60;;
34767;SDS011;21755;43.608;1.236;2023-05-10T11:19:11;9.82;;;2.13;;
34767;SDS011;21755;43.608;1.236;2023-05-10T11:21:45;7.57;;;1.40;;
34767;SDS011;21755;43.608;1.236;2023-05-10T11:24:13;9.45;;;1.70;;
34767;SDS011;21755;43.608;1.236;2023-05-10T11:26:41;5.28;;;1.10;;
34767;SDS011;21755;43.608;1.236;2023-05-10T11:29:07;5.00;;;1.50;;
34767;SDS011;21755;43.608;1.236;2023-05-10T11:31:34;6.22;;;1.20;;
34767;SDS011;21755;43.608;1.236;2023-05-10T11:34:00;3.70;;;1.08;;
34767;SDS011;21755;43.608;1.236;2023-05-10T11:36:32;4.43;;;1.27;;
34767;SDS011;21755;43.608;1.236;2023-05-10T11:38:58;8.93;;;1.85;;
34767;SDS011;21755;43.608;1.236;2023-05-10T11:41:25;6.88;;;1.35;;
34767;SDS011;21755;43.608;1.236;2023-05-10T11:43:53;4.25;;;1.20;;
34767;SDS011;21755;43.608;1.236;2023-05-10T11:46:21;11.43;;;1.90;;
34767;SDS011;21755;43.608;1.236;2023-05-10T11:48:49;9.85;;;1.15;;
34767;SDS011;21755;43.608;1.236;2023-05-10T11:51:19;5.00;;;1.10;;
34767;SDS011;21755;43.608;1.236;2023-05-10T11:53:46;12.20;;;1.92;;
34767;SDS011;21755;43.608;1.236;2023-05-10T11:56:12;10.68;;;1.95;;
34767;SDS011;21755;43.608;1.236;2023-05-10T11:58:38;9.98;;;1.80;;
34767;SDS011;21755;43.608;1.236;2023-05-10T12:01:05;8.82;;;1.45;;
34767;SDS011;21755;43.608;1.236;2023-05-10T12:03:32;14.82;;;2.88;;
34767;SDS011;21755;43.608;1.236;2023-05-10T12:05:59;12.80;;;1.85;;
34767;SDS011;21755;43.608;1.236;2023-05-10T12:08:26;13.20;;;1.40;;
34767;SDS011;21755;43.608;1.236;2023-05-10T12:10:53;7.05;;;1.48;;
34767;SDS011;21755;43.608;1.236;2023-05-10T12:13:29;9.32;;;1.92;;
34767;SDS011;21755;43.608;1.236;2023-05-10T12:15:57;8.55;;;1.63;;
34767;SDS011;21755;43.608;1.236;2023-05-10T12:18:23;8.00;;;1.33;;
34767;SDS011;21755;43.608;1.236;2023-05-10T12:20:53;9.00;;;1.23;;
34767;SDS011;21755;43.608;1.236;2023-05-10T12:23:19;4.32;;;1.20;;
34767;SDS011;21755;43.608;1.236;2023-05-10T12:25:45;4.82;;;1.27;;
34767;SDS011;21755;43.608;1.236;2023-05-10T12:28:11;6.25;;;1.00;;
34767;SDS011;21755;43.608;1.236;2023-05-10T12:30:37;6.97;;;1.67;;
34767;SDS011;21755;43.608;1.236;2023-05-10T12:33:11;6.20;;;1.27;;
34767;SDS011;21755;43.608;1.236;2023-05-10T12:35:46;6.72;;;1.30;;
34767;SDS011;21755;43.608;1.236;2023-05-10T12:38:24;3.17;;;0.95;;
34767;SDS011;21755;43.608;1.236;2023-05-10T12:40:59;2.92;;;0.80;;
34767;SDS011;21755;43.608;1.236;2023-05-10T12:43:26;6.65;;;1.00;;
34767;SDS011;21755;43.608;1.236;2023-05-10T12:45:52;5.53;;;1.30;;
34767;SDS011;21755;43.608;1.236;2023-05-10T12:48:19;5.72;;;1.38;;
34767;SDS011;21755;43.608;1.236;2023-05-10T12:50:45;6.07;;;1.27;;
34767;SDS011;21755;43.608;1.236;2023-05-10T12:53:12;4.40;;;1.27;;
34767;SDS011;21755;43.608;1.236;2023-05-10T12:55:40;3.13;;;0.70;;
34767;SDS011;21755;43.608;1.236;2023-05-10T12:58:06;5.55;;;1.15;;
34767;SDS011;21755;43.608;1.236;2023-05-10T13:00:32;6.28;;;1.45;;
34767;SDS011;21755;43.608;1.236;2023-05-10T13:02:58;5.75;;;1.10;;
34767;SDS011;21755;43.608;1.236;2023-05-10T13:05:24;6.63;;;1.08;;
34767;SDS011;21755;43.608;1.236;2023-05-10T13:07:50;8.52;;;1.20;;
34767;SDS011;21755;43.608;1.236;2023-05-10T13:10:16;3.50;;;1.05;;
34767;SDS011;21755;43.608;1.236;2023-05-10T13:12:42;3.70;;;1.10;;
34767;SDS011;21755;43.608;1.236;2023-05-10T13:15:07;3.33;;;1.00;;
34767;SDS011;21755;43.608;1.236;2023-05-10T13:17:34;5.97;;;1.10;;
34767;SDS011;21755;43.608;1.236;2023-05-10T13:20:00;5.78;;;1.45;;
34767;SDS011;21755;43.608;1.236;2023-05-10T13:22:26;3.53;;;1.02;;
34767;SDS011;21755;43.608;1.236;2023-05-10T13:24:51;6.78;;;1.10;;
34767;SDS011;21755;43.608;1.236;2023-05-10T13:27:17;7.80;;;1.25;;
34767;SDS011;21755;43.608;1.236;2023-05-10T13:29:43;5.28;;;1.13;;
34767;SDS011;21755;43.608;1.236;2023-05-10T13:32:09;5.80;;;1.48;;
34767;SDS011;21755;43.608;1.236;2023-05-10T13:34:35;5.28;;;1.38;;
34767;SDS011;21755;43.608;1.236;2023-05-10T13:37:01;5.75;;;1.30;;
34767;SDS011;21755;43.608;1.236;2023-05-10T13:39:27;5.40;;;1.10;;
34767;SDS011;21755;43.608;1.236;2023-05-10T13:41:55;8.50;;;1.48;;
34767;SDS011;21755;43.608;1.236;2023-05-10T13:44:21;6.38;;;1.23;;
34767;SDS011;21755;43.608;1.236;2023-05-10T13:46:47;7.90;;;1.60;;
34767;SDS011;21755;43.608;1.236;2023-05-10T13:49:13;9.95;;;1.70;;
34767;SDS011;21755;43.608;1.236;2023-05-10T13:51:39;7.80;;;1.35;;
34767;SDS011;21755;43.608;1.236;2023-05-10T13:54:05;10.63;;;1.50;;
34767;SDS011;21755;43.608;1.236;2023-05-10T13:56:30;9.63;;;1.40;;
34767;SDS011;21755;43.608;1.236;2023-05-10T13:58:56;6.53;;;1.48;;
34767;SDS011;21755;43.608;1.236;2023-05-10T14:01:23;6.95;;;1.30;;
34767;SDS011;21755;43.608;1.236;2023-05-10T14:03:49;7.85;;;1.20;;
34767;SDS011;21755;43.608;1.236;2023-05-10T14:06:15;9.60;;;1.58;;
34767;SDS011;21755;43.608;1.236;2023-05-10T14:08:41;8.75;;;1.25;;
34767;SDS011;21755;43.608;1.236;2023-05-10T14:11:07;5.15;;;1.10;;
34767;SDS011;21755;43.608;1.236;2023-05-10T14:13:34;3.35;;;1.20;;
34767;SDS011;21755;43.608;1.236;2023-05-10T14:16:00;8.30;;;1.60;;
34767;SDS011;21755;43.608;1.236;2023-05-10T14:18:26;5.03;;;1.85;;
34767;SDS011;21755;43.608;1.236;2023-05-10T14:20:53;6.47;;;1.55;;
34767;SDS011;21755;43.608;1.236;2023-05-10T14:23:20;5.22;;;1.58;;
34767;SDS011;21755;43.608;1.236;2023-05-10T14:25:49;3.20;;;1.30;;
34767;SDS011;21755;43.608;1.236;2023-05-10T14:28:16;4.93;;;1.52;;
34767;SDS011;21755;43.608;1.236;2023-05-10T14:30:43;6.45;;;1.90;;
34767;SDS011;21755;43.608;1.236;2023-05-10T14:33:09;4.93;;;1.40;;
34767;SDS011;21755;43.608;1.236;2023-05-10T14:35:35;7.65;;;1.70;;
34767;SDS011;21755;43.608;1.236;2023-05-10T14:38:01;10.68;;;1.70;;
34767;SDS011;21755;43.608;1.236;2023-05-10T14:40:28;5.13;;;1.40;;
34767;SDS011;21755;43.608;1.236;2023-05-10T14:42:55;8.18;;;1.80;;
34767;SDS011;21755;43.608;1.236;2023-05-10T14:45:21;8.98;;;1.77;;
34767;SDS011;21755;43.608;1.236;2023-05-10T14:47:48;6.18;;;1.65;;
34767;SDS011;21755;43.608;1.236;2023-05-10T14:50:15;8.40;;;1.63;;
34767;SDS011;21755;43.608;1.236;2023-05-10T14:52:43;7.03;;;1.33;;
34767;SDS011;21755;43.608;1.236;2023-05-10T14:55:09;8.07;;;1.52;;
34767;SDS011;21755;43.608;1.236;2023-05-10T14:57:35;9.13;;;1.20;;
34767;SDS011;21755;43.608;1.236;2023-05-10T15:00:02;9.35;;;1.88;;
34767;SDS011;21755;43.608;1.236;2023-05-10T15:02:28;8.27;;;1.73;;
34767;SDS011;21755;43.608;1.236;2023-05-10T15:04:56;7.05;;;1.83;;
34767;SDS011;21755;43.608;1.236;2023-05-10T15:07:22;9.98;;;1.30;;
34767;SDS011;21755;43.608;1.236;2023-05-10T15:09:49;9.70;;;1.50;;
34767;SDS011;21755;43.608;1.236;2023-05-10T15:12:17;6.40;;;1.48;;
34767;SDS011;21755;43.608;1.236;2023-05-10T15:14:43;10.07;;;1.85;;
34767;SDS011;21755;43.608;1.236;2023-05-10T15:17:09;13.55;;;2.00;;